sensor_id;sensor_type;location;lat;lon;timestamp;temperature;humidity
23869;DHT22;12115;47.128;15.422;2023-07-13T00:00:25;21.30;99.90
23869;DHT22;12115;47.128;15.422;2023-07-13T00:02:52;21.30;99.90
23869;DHT22;12115;47.128;15.422;2023-07-13T00:05:22;21.30;99.90
23869;DHT22;12115;47.128;15.422;2023-07-13T00:07:50;21.20;99.90
23869;DHT22;12115;47.128;15.422;2023-07-13T00:10:17;21.20;99.90
23869;DHT22;12115;47.128;15.422;2023-07-13T00:12:45;21.10;99.90
23869;DHT22;12115;47.128;15.422;2023-07-13T00:15:13;21.10;99.90
23869;DHT22;12115;47.128;15.422;2023-07-13T00:17:41;21.10;99.90
23869;DHT22;12115;47.128;15.422;2023-07-13T00:20:09;21.10;99.90
23869;DHT22;12115;47.128;15.422;2023-07-13T00:22:36;21.00;99.90
23869;DHT22;12115;47.128;15.422;2023-07-13T00:25:03;20.90;99.90
23869;DHT22;12115;47.128;15.422;2023-07-13T00:27:30;20.80;99.90
23869;DHT22;12115;47.128;15.422;2023-07-13T00:29:58;20.80;99.90
23869;DHT22;12115;47.128;15.422;2023-07-13T00:32:25;20.90;99.90
23869;DHT22;12115;47.128;15.422;2023-07-13T00:34:52;20.90;99.90
23869;DHT22;12115;47.128;15.422;2023-07-13T00:37:19;20.90;99.90
23869;DHT22;12115;47.128;15.422;2023-07-13T00:39:46;20.80;99.90
23869;DHT22;12115;47.128;15.422;2023-07-13T00:42:13;20.80;99.90
23869;DHT22;12115;47.128;15.422;2023-07-13T00:44:40;20.80;99.90
23869;DHT22;12115;47.128;15.422;2023-07-13T00:47:08;20.60;99.90
23869;DHT22;12115;47.128;15.422;2023-07-13T00:49:35;20.60;99.90
23869;DHT22;12115;47.128;15.422;2023-07-13T00:52:06;20.70;99.90
23869;DHT22;12115;47.128;15.422;2023-07-13T00:54:39;20.70;99.90
23869;DHT22;12115;47.128;15.422;2023-07-13T00:57:09;20.70;99.90
23869;DHT22;12115;47.128;15.422;2023-07-13T00:59:40;20.60;99.90
23869;DHT22;12115;47.128;15.422;2023-07-13T01:02:08;20.70;99.90
23869;DHT22;12115;47.128;15.422;2023-07-13T01:04:36;20.60;99.90
23869;DHT22;12115;47.128;15.422;2023-07-13T01:07:06;20.70;99.90
23869;DHT22;12115;47.128;15.422;2023-07-13T01:09:33;20.80;99.90
23869;DHT22;12115;47.128;15.422;2023-07-13T01:12:00;20.70;99.90
23869;DHT22;12115;47.128;15.422;2023-07-13T01:14:29;20.70;99.90
23869;DHT22;12115;47.128;15.422;2023-07-13T01:16:56;20.60;99.90
23869;DHT22;12115;47.128;15.422;2023-07-13T01:19:35;20.50;99.90
23869;DHT22;12115;47.128;15.422;2023-07-13T01:22:04;20.50;99.90
23869;DHT22;12115;47.128;15.422;2023-07-13T01:24:36;20.60;99.90
23869;DHT22;12115;47.128;15.422;2023-07-13T01:27:03;20.60;99.90
23869;DHT22;12115;47.128;15.422;2023-07-13T01:29:31;20.60;99.90
23869;DHT22;12115;47.128;15.422;2023-07-13T01:31:59;20.60;99.90
23869;DHT22;12115;47.128;15.422;2023-07-13T01:34:28;20.60;99.90
23869;DHT22;12115;47.128;15.422;2023-07-13T01:36:55;20.50;99.90
23869;DHT22;12115;47.128;15.422;2023-07-13T01:39:22;20.50;99.90
23869;DHT22;12115;47.128;15.422;2023-07-13T01:41:49;20.50;99.90
23869;DHT22;12115;47.128;15.422;2023-07-13T01:44:19;20.40;99.90
23869;DHT22;12115;47.128;15.422;2023-07-13T01:46:47;20.50;99.90
23869;DHT22;12115;47.128;15.422;2023-07-13T01:49:14;20.50;99.90
23869;DHT22;12115;47.128;15.422;2023-07-13T01:51:41;20.50;99.90
23869;DHT22;12115;47.128;15.422;2023-07-13T01:54:10;20.40;99.90
23869;DHT22;12115;47.128;15.422;2023-07-13T01:56:37;20.40;99.90
23869;DHT22;12115;47.128;15.422;2023-07-13T01:59:04;20.40;99.90
23869;DHT22;12115;47.128;15.422;2023-07-13T02:01:31;20.40;99.90
23869;DHT22;12115;47.128;15.422;2023-07-13T02:03:59;20.50;99.90
23869;DHT22;12115;47.128;15.422;2023-07-13T02:06:28;20.50;99.90
23869;DHT22;12115;47.128;15.422;2023-07-13T02:08:55;20.50;99.90
23869;DHT22;12115;47.128;15.422;2023-07-13T02:11:23;20.50;99.90
23869;DHT22;12115;47.128;15.422;2023-07-13T02:13:51;20.50;99.90
23869;DHT22;12115;47.128;15.422;2023-07-13T02:16:19;20.50;99.90
23869;DHT22;12115;47.128;15.422;2023-07-13T02:18:46;20.50;99.90
23869;DHT22;12115;47.128;15.422;2023-07-13T02:21:13;20.40;99.90
23869;DHT22;12115;47.128;15.422;2023-07-13T02:23:40;20.40;99.90
23869;DHT22;12115;47.128;15.422;2023-07-13T02:26:07;20.30;99.90
23869;DHT22;12115;47.128;15.422;2023-07-13T02:28:35;20.10;99.90
23869;DHT22;12115;47.128;15.422;2023-07-13T02:31:09;20.00;99.90
23869;DHT22;12115;47.128;15.422;2023-07-13T02:33:39;19.80;99.90
23869;DHT22;12115;47.128;15.422;2023-07-13T02:36:07;19.70;99.90
23869;DHT22;12115;47.128;15.422;2023-07-13T02:38:35;19.80;99.90
23869;DHT22;12115;47.128;15.422;2023-07-13T02:41:04;19.80;99.90
23869;DHT22;12115;47.128;15.422;2023-07-13T02:43:31;19.90;99.90
23869;DHT22;12115;47.128;15.422;2023-07-13T02:45:59;19.80;99.90
23869;DHT22;12115;47.128;15.422;2023-07-13T02:48:30;19.80;99.90
23869;DHT22;12115;47.128;15.422;2023-07-13T02:50:57;19.80;99.90
23869;DHT22;12115;47.128;15.422;2023-07-13T02:53:25;19.90;99.90
23869;DHT22;12115;47.128;15.422;2023-07-13T02:55:52;19.90;99.90
23869;DHT22;12115;47.128;15.422;2023-07-13T02:58:20;19.90;99.90
23869;DHT22;12115;47.128;15.422;2023-07-13T03:00:47;19.90;99.90
23869;DHT22;12115;47.128;15.422;2023-07-13T03:03:17;19.80;99.90
23869;DHT22;12115;47.128;15.422;2023-07-13T03:05:44;19.70;99.90
23869;DHT22;12115;47.128;15.422;2023-07-13T03:08:22;19.60;99.90
23869;DHT22;12115;47.128;15.422;2023-07-13T03:11:01;19.60;99.90
23869;DHT22;12115;47.128;15.422;2023-07-13T03:13:35;19.60;99.90
23869;DHT22;12115;47.128;15.422;2023-07-13T03:16:04;19.70;99.90
23869;DHT22;12115;47.128;15.422;2023-07-13T03:18:33;19.60;99.90
23869;DHT22;12115;47.128;15.422;2023-07-13T03:21:03;19.80;99.90
23869;DHT22;12115;47.128;15.422;2023-07-13T03:23:32;19.80;99.90
23869;DHT22;12115;47.128;15.422;2023-07-13T03:26:08;19.80;99.90
23869;DHT22;12115;47.128;15.422;2023-07-13T03:28:35;19.90;99.90
23869;DHT22;12115;47.128;15.422;2023-07-13T03:31:05;19.80;99.90
23869;DHT22;12115;47.128;15.422;2023-07-13T03:33:35;19.80;99.90
23869;DHT22;12115;47.128;15.422;2023-07-13T03:36:06;19.60;99.90
23869;DHT22;12115;47.128;15.422;2023-07-13T03:38:35;19.60;99.90
23869;DHT22;12115;47.128;15.422;2023-07-13T03:41:03;19.60;99.90
23869;DHT22;12115;47.128;15.422;2023-07-13T03:43:31;19.40;99.90
23869;DHT22;12115;47.128;15.422;2023-07-13T03:45:59;19.40;99.90
23869;DHT22;12115;47.128;15.422;2023-07-13T03:48:27;19.40;99.90
23869;DHT22;12115;47.128;15.422;2023-07-13T03:50:54;19.50;99.90
23869;DHT22;12115;47.128;15.422;2023-07-13T03:53:22;19.50;99.90
23869;DHT22;12115;47.128;15.422;2023-07-13T03:55:51;19.60;99.90
23869;DHT22;12115;47.128;15.422;2023-07-13T03:58:25;19.60;99.90
23869;DHT22;12115;47.128;15.422;2023-07-13T04:00:56;19.60;99.90
23869;DHT22;12115;47.128;15.422;2023-07-13T04:03:24;19.50;99.90
23869;DHT22;12115;47.128;15.422;2023-07-13T04:05:52;19.50;99.90
23869;DHT22;12115;47.128;15.422;2023-07-13T04:08:20;19.60;99.90
23869;DHT22;12115;47.128;15.422;2023-07-13T04:10:47;19.60;99.90
23869;DHT22;12115;47.128;15.422;2023-07-13T04:13:14;19.60;99.90
23869;DHT22;12115;47.128;15.422;2023-07-13T04:15:42;19.60;99.90
23869;DHT22;12115;47.128;15.422;2023-07-13T04:18:09;19.50;99.90
23869;DHT22;12115;47.128;15.422;2023-07-13T04:20:36;19.40;99.90
23869;DHT22;12115;47.128;15.422;2023-07-13T04:23:03;19.30;99.90
23869;DHT22;12115;47.128;15.422;2023-07-13T04:25:30;19.30;99.90
23869;DHT22;12115;47.128;15.422;2023-07-13T04:27:57;19.30;99.90
23869;DHT22;12115;47.128;15.422;2023-07-13T04:30:29;19.40;99.90
23869;DHT22;12115;47.128;15.422;2023-07-13T04:32:56;19.40;99.90
23869;DHT22;12115;47.128;15.422;2023-07-13T04:35:23;19.50;99.90
23869;DHT22;12115;47.128;15.422;2023-07-13T04:37:51;19.50;99.90
23869;DHT22;12115;47.128;15.422;2023-07-13T04:40:19;19.50;99.90
23869;DHT22;12115;47.128;15.422;2023-07-13T04:42:47;19.50;99.90
23869;DHT22;12115;47.128;15.422;2023-07-13T04:45:15;19.50;99.90
23869;DHT22;12115;47.128;15.422;2023-07-13T04:47:44;19.40;99.90
23869;DHT22;12115;47.128;15.422;2023-07-13T04:50:12;19.30;99.90
23869;DHT22;12115;47.128;15.422;2023-07-13T04:52:42;19.40;99.90
23869;DHT22;12115;47.128;15.422;2023-07-13T04:55:09;19.40;99.90
23869;DHT22;12115;47.128;15.422;2023-07-13T04:57:36;19.40;99.90
23869;DHT22;12115;47.128;15.422;2023-07-13T05:00:05;19.40;99.90
23869;DHT22;12115;47.128;15.422;2023-07-13T05:02:32;19.40;99.90
23869;DHT22;12115;47.128;15.422;2023-07-13T05:05:00;19.40;99.90
23869;DHT22;12115;47.128;15.422;2023-07-13T05:07:27;19.50;99.90
23869;DHT22;12115;47.128;15.422;2023-07-13T05:09:54;19.50;99.90
23869;DHT22;12115;47.128;15.422;2023-07-13T05:12:21;19.50;99.90
23869;DHT22;12115;47.128;15.422;2023-07-13T05:14:49;19.50;99.90
23869;DHT22;12115;47.128;15.422;2023-07-13T05:17:16;19.60;99.90
23869;DHT22;12115;47.128;15.422;2023-07-13T05:19:43;19.60;99.90
23869;DHT22;12115;47.128;15.422;2023-07-13T05:22:10;19.60;99.90
23869;DHT22;12115;47.128;15.422;2023-07-13T05:24:38;19.60;99.90
23869;DHT22;12115;47.128;15.422;2023-07-13T05:27:07;19.60;99.90
23869;DHT22;12115;47.128;15.422;2023-07-13T05:29:35;19.70;99.90
23869;DHT22;12115;47.128;15.422;2023-07-13T05:32:02;19.70;99.90
23869;DHT22;12115;47.128;15.422;2023-07-13T05:34:30;19.80;99.90
23869;DHT22;12115;47.128;15.422;2023-07-13T05:36:57;19.80;99.90
23869;DHT22;12115;47.128;15.422;2023-07-13T05:39:24;19.80;99.90
23869;DHT22;12115;47.128;15.422;2023-07-13T05:41:53;19.90;99.90
23869;DHT22;12115;47.128;15.422;2023-07-13T05:44:20;19.90;99.90
23869;DHT22;12115;47.128;15.422;2023-07-13T05:46:48;19.90;99.90
23869;DHT22;12115;47.128;15.422;2023-07-13T05:49:16;19.90;99.90
23869;DHT22;12115;47.128;15.422;2023-07-13T05:51:43;20.00;99.90
23869;DHT22;12115;47.128;15.422;2023-07-13T05:54:10;20.00;99.90
23869;DHT22;12115;47.128;15.422;2023-07-13T05:56:37;20.00;99.90
23869;DHT22;12115;47.128;15.422;2023-07-13T05:59:04;20.10;99.90
23869;DHT22;12115;47.128;15.422;2023-07-13T06:01:32;20.10;99.90
23869;DHT22;12115;47.128;15.422;2023-07-13T06:03:59;20.10;99.90
23869;DHT22;12115;47.128;15.422;2023-07-13T06:06:26;20.20;99.90
23869;DHT22;12115;47.128;15.422;2023-07-13T06:08:53;20.20;99.90
23869;DHT22;12115;47.128;15.422;2023-07-13T06:11:22;20.30;99.90
23869;DHT22;12115;47.128;15.422;2023-07-13T06:13:49;20.30;99.90
23869;DHT22;12115;47.128;15.422;2023-07-13T06:16:16;20.30;99.90
23869;DHT22;12115;47.128;15.422;2023-07-13T06:18:44;20.40;99.90
23869;DHT22;12115;47.128;15.422;2023-07-13T06:21:13;20.40;99.90
23869;DHT22;12115;47.128;15.422;2023-07-13T06:23:41;20.40;99.90
23869;DHT22;12115;47.128;15.422;2023-07-13T06:26:09;20.40;99.90
23869;DHT22;12115;47.128;15.422;2023-07-13T06:28:36;20.50;99.90
23869;DHT22;12115;47.128;15.422;2023-07-13T06:31:07;20.50;99.90
23869;DHT22;12115;47.128;15.422;2023-07-13T06:33:35;20.50;99.90
23869;DHT22;12115;47.128;15.422;2023-07-13T06:36:03;20.60;99.90
23869;DHT22;12115;47.128;15.422;2023-07-13T06:38:31;20.60;99.90
23869;DHT22;12115;47.128;15.422;2023-07-13T06:40:58;20.60;99.90
23869;DHT22;12115;47.128;15.422;2023-07-13T06:43:26;20.70;99.90
23869;DHT22;12115;47.128;15.422;2023-07-13T06:45:54;20.80;99.90
23869;DHT22;12115;47.128;15.422;2023-07-13T06:48:21;20.90;99.90
23869;DHT22;12115;47.128;15.422;2023-07-13T06:50:49;20.90;99.90
23869;DHT22;12115;47.128;15.422;2023-07-13T06:53:17;20.90;99.90
23869;DHT22;12115;47.128;15.422;2023-07-13T06:55:45;21.00;99.90
23869;DHT22;12115;47.128;15.422;2023-07-13T06:58:14;21.00;99.90
23869;DHT22;12115;47.128;15.422;2023-07-13T07:00:41;21.00;99.90
23869;DHT22;12115;47.128;15.422;2023-07-13T07:03:08;21.00;99.90
23869;DHT22;12115;47.128;15.422;2023-07-13T07:05:36;21.10;99.90
23869;DHT22;12115;47.128;15.422;2023-07-13T07:08:03;21.20;99.90
23869;DHT22;12115;47.128;15.422;2023-07-13T07:10:30;21.30;99.90
23869;DHT22;12115;47.128;15.422;2023-07-13T07:12:59;21.30;99.90
23869;DHT22;12115;47.128;15.422;2023-07-13T07:15:27;21.30;99.90
23869;DHT22;12115;47.128;15.422;2023-07-13T07:17:54;21.30;99.90
23869;DHT22;12115;47.128;15.422;2023-07-13T07:20:22;21.40;99.90
23869;DHT22;12115;47.128;15.422;2023-07-13T07:22:49;21.40;99.90
23869;DHT22;12115;47.128;15.422;2023-07-13T07:25:18;21.60;99.90
23869;DHT22;12115;47.128;15.422;2023-07-13T07:27:45;21.60;99.90
23869;DHT22;12115;47.128;15.422;2023-07-13T07:30:16;21.70;99.90
23869;DHT22;12115;47.128;15.422;2023-07-13T07:32:45;21.80;99.90
23869;DHT22;12115;47.128;15.422;2023-07-13T07:35:16;21.80;99.90
23869;DHT22;12115;47.128;15.422;2023-07-13T07:37:43;21.90;99.90
23869;DHT22;12115;47.128;15.422;2023-07-13T07:40:16;21.90;99.90
23869;DHT22;12115;47.128;15.422;2023-07-13T07:42:57;22.00;99.90
23869;DHT22;12115;47.128;15.422;2023-07-13T07:45:29;22.10;99.90
23869;DHT22;12115;47.128;15.422;2023-07-13T07:47:58;22.20;99.90
23869;DHT22;12115;47.128;15.422;2023-07-13T07:50:26;22.20;99.90
23869;DHT22;12115;47.128;15.422;2023-07-13T07:52:54;22.20;99.90
23869;DHT22;12115;47.128;15.422;2023-07-13T07:55:22;22.30;99.90
23869;DHT22;12115;47.128;15.422;2023-07-13T07:57:53;22.30;99.90
23869;DHT22;12115;47.128;15.422;2023-07-13T08:00:23;22.40;99.90
23869;DHT22;12115;47.128;15.422;2023-07-13T08:02:52;22.40;99.90
23869;DHT22;12115;47.128;15.422;2023-07-13T08:05:40;22.50;99.90
23869;DHT22;12115;47.128;15.422;2023-07-13T08:08:27;22.50;99.90
23869;DHT22;12115;47.128;15.422;2023-07-13T08:10:54;22.60;99.90
23869;DHT22;12115;47.128;15.422;2023-07-13T08:13:42;22.70;99.90
23869;DHT22;12115;47.128;15.422;2023-07-13T08:16:09;22.80;99.90
23869;DHT22;12115;47.128;15.422;2023-07-13T08:18:36;22.80;99.90
23869;DHT22;12115;47.128;15.422;2023-07-13T08:21:04;22.90;99.90
23869;DHT22;12115;47.128;15.422;2023-07-13T08:23:33;22.90;99.90
23869;DHT22;12115;47.128;15.422;2023-07-13T08:26:00;23.00;99.90
23869;DHT22;12115;47.128;15.422;2023-07-13T08:28:28;23.00;99.90
23869;DHT22;12115;47.128;15.422;2023-07-13T08:31:00;23.10;99.90
23869;DHT22;12115;47.128;15.422;2023-07-13T08:33:27;23.20;99.90
23869;DHT22;12115;47.128;15.422;2023-07-13T08:35:54;23.30;99.90
23869;DHT22;12115;47.128;15.422;2023-07-13T08:38:22;23.30;99.90
23869;DHT22;12115;47.128;15.422;2023-07-13T08:40:53;23.40;99.90
23869;DHT22;12115;47.128;15.422;2023-07-13T08:43:26;23.50;99.90
23869;DHT22;12115;47.128;15.422;2023-07-13T08:48:59;23.70;99.90
23869;DHT22;12115;47.128;15.422;2023-07-13T08:51:34;23.90;99.90
23869;DHT22;12115;47.128;15.422;2023-07-13T08:54:15;24.00;99.90
23869;DHT22;12115;47.128;15.422;2023-07-13T08:56:45;24.00;99.90
23869;DHT22;12115;47.128;15.422;2023-07-13T08:59:23;24.00;99.90
23869;DHT22;12115;47.128;15.422;2023-07-13T09:04:34;24.20;99.90
23869;DHT22;12115;47.128;15.422;2023-07-13T09:07:05;24.20;99.90
23869;DHT22;12115;47.128;15.422;2023-07-13T09:15:30;24.50;99.90
23869;DHT22;12115;47.128;15.422;2023-07-13T09:18:02;24.60;99.90
23869;DHT22;12115;47.128;15.422;2023-07-13T09:23:01;24.70;99.90
23869;DHT22;12115;47.128;15.422;2023-07-13T09:25:34;24.80;99.90
23869;DHT22;12115;47.128;15.422;2023-07-13T09:28:08;24.90;99.90
23869;DHT22;12115;47.128;15.422;2023-07-13T09:33:16;25.20;99.90
23869;DHT22;12115;47.128;15.422;2023-07-13T09:35:44;25.30;99.90
23869;DHT22;12115;47.128;15.422;2023-07-13T09:38:12;25.40;99.90
23869;DHT22;12115;47.128;15.422;2023-07-13T09:43:07;25.50;99.90
23869;DHT22;12115;47.128;15.422;2023-07-13T09:45:37;25.60;99.90
23869;DHT22;12115;47.128;15.422;2023-07-13T09:48:07;25.70;99.90
23869;DHT22;12115;47.128;15.422;2023-07-13T09:50:37;25.90;99.90
23869;DHT22;12115;47.128;15.422;2023-07-13T09:53:09;25.90;99.90
23869;DHT22;12115;47.128;15.422;2023-07-13T09:55:41;26.00;99.90
23869;DHT22;12115;47.128;15.422;2023-07-13T09:58:14;26.10;99.90
23869;DHT22;12115;47.128;15.422;2023-07-13T10:00:42;26.30;99.90
23869;DHT22;12115;47.128;15.422;2023-07-13T10:05:44;26.60;99.90
23869;DHT22;12115;47.128;15.422;2023-07-13T10:08:16;26.60;99.90
23869;DHT22;12115;47.128;15.422;2023-07-13T10:10:46;26.60;99.90
23869;DHT22;12115;47.128;15.422;2023-07-13T10:13:53;26.70;99.90
23869;DHT22;12115;47.128;15.422;2023-07-13T10:16:12;26.80;99.90
23869;DHT22;12115;47.128;15.422;2023-07-13T10:18:41;27.00;99.90
23869;DHT22;12115;47.128;15.422;2023-07-13T10:21:11;27.10;99.90
23869;DHT22;12115;47.128;15.422;2023-07-13T10:24:24;27.20;99.90
23869;DHT22;12115;47.128;15.422;2023-07-13T10:27:02;27.20;99.90
23869;DHT22;12115;47.128;15.422;2023-07-13T10:29:38;27.10;99.10
23869;DHT22;12115;47.128;15.422;2023-07-13T10:32:12;27.20;99.90
23869;DHT22;12115;47.128;15.422;2023-07-13T10:34:41;27.30;99.90
23869;DHT22;12115;47.128;15.422;2023-07-13T10:37:15;27.40;99.90
23869;DHT22;12115;47.128;15.422;2023-07-13T10:39:44;27.50;99.90
23869;DHT22;12115;47.128;15.422;2023-07-13T10:42:13;27.50;99.90
23869;DHT22;12115;47.128;15.422;2023-07-13T10:44:42;27.50;99.90
23869;DHT22;12115;47.128;15.422;2023-07-13T10:47:13;27.60;99.40
23869;DHT22;12115;47.128;15.422;2023-07-13T10:49:40;27.60;99.60
23869;DHT22;12115;47.128;15.422;2023-07-13T10:52:55;27.70;99.90
23869;DHT22;12115;47.128;15.422;2023-07-13T10:54:57;27.80;99.60
23869;DHT22;12115;47.128;15.422;2023-07-13T10:57:25;27.80;99.50
23869;DHT22;12115;47.128;15.422;2023-07-13T11:02:29;28.00;99.30
23869;DHT22;12115;47.128;15.422;2023-07-13T11:04:56;28.00;99.60
23869;DHT22;12115;47.128;15.422;2023-07-13T11:07:25;28.00;98.80
23869;DHT22;12115;47.128;15.422;2023-07-13T11:09:59;28.10;99.20
23869;DHT22;12115;47.128;15.422;2023-07-13T11:15:26;28.20;99.00
23869;DHT22;12115;47.128;15.422;2023-07-13T11:17:54;28.30;99.10
23869;DHT22;12115;47.128;15.422;2023-07-13T11:20:35;28.40;99.20
23869;DHT22;12115;47.128;15.422;2023-07-13T11:32:38;28.70;96.90
23869;DHT22;12115;47.128;15.422;2023-07-13T11:42:16;28.80;97.20
23869;DHT22;12115;47.128;15.422;2023-07-13T11:48:41;28.60;96.40
23869;DHT22;12115;47.128;15.422;2023-07-13T11:51:25;28.60;96.90
23869;DHT22;12115;47.128;15.422;2023-07-13T11:54:43;28.50;96.90
23869;DHT22;12115;47.128;15.422;2023-07-13T11:58:04;28.40;97.10
23869;DHT22;12115;47.128;15.422;2023-07-13T12:00:53;28.00;95.50
23869;DHT22;12115;47.128;15.422;2023-07-13T12:04:32;27.60;95.80
23869;DHT22;12115;47.128;15.422;2023-07-13T12:07:07;27.60;98.30
23869;DHT22;12115;47.128;15.422;2023-07-13T12:10:24;27.70;98.40
23869;DHT22;12115;47.128;15.422;2023-07-13T12:13:04;27.60;96.10
23869;DHT22;12115;47.128;15.422;2023-07-13T12:23:31;27.60;96.10
23869;DHT22;12115;47.128;15.422;2023-07-13T12:26:09;27.50;96.80
23869;DHT22;12115;47.128;15.422;2023-07-13T12:35:55;27.00;99.60
23869;DHT22;12115;47.128;15.422;2023-07-13T12:38:32;26.90;99.90
23869;DHT22;12115;47.128;15.422;2023-07-13T12:41:12;26.90;99.90
23869;DHT22;12115;47.128;15.422;2023-07-13T12:43:44;26.80;99.90
23869;DHT22;12115;47.128;15.422;2023-07-13T12:46:27;26.80;99.90
23869;DHT22;12115;47.128;15.422;2023-07-13T12:50:16;26.70;99.90
23869;DHT22;12115;47.128;15.422;2023-07-13T12:55:40;26.90;99.90
23869;DHT22;12115;47.128;15.422;2023-07-13T12:58:09;26.60;99.90
23869;DHT22;12115;47.128;15.422;2023-07-13T13:00:38;26.40;99.90
23869;DHT22;12115;47.128;15.422;2023-07-13T13:03:26;26.20;99.90
23869;DHT22;12115;47.128;15.422;2023-07-13T13:06:38;26.10;99.90
23869;DHT22;12115;47.128;15.422;2023-07-13T13:08:46;26.00;99.90
23869;DHT22;12115;47.128;15.422;2023-07-13T13:11:13;26.00;99.90
23869;DHT22;12115;47.128;15.422;2023-07-13T13:13:51;26.00;99.90
23869;DHT22;12115;47.128;15.422;2023-07-13T13:16:23;25.90;99.90
23869;DHT22;12115;47.128;15.422;2023-07-13T13:18:52;26.00;99.90
23869;DHT22;12115;47.128;15.422;2023-07-13T13:21:24;26.00;99.90
23869;DHT22;12115;47.128;15.422;2023-07-13T13:24:01;26.00;99.90
23869;DHT22;12115;47.128;15.422;2023-07-13T13:29:55;25.80;99.90
23869;DHT22;12115;47.128;15.422;2023-07-13T13:32:24;25.80;99.90
23869;DHT22;12115;47.128;15.422;2023-07-13T13:34:51;25.70;99.90
23869;DHT22;12115;47.128;15.422;2023-07-13T13:37:24;25.60;99.90
23869;DHT22;12115;47.128;15.422;2023-07-13T13:39:58;25.50;99.90
23869;DHT22;12115;47.128;15.422;2023-07-13T13:42:38;25.30;99.90
23869;DHT22;12115;47.128;15.422;2023-07-13T13:45:09;25.20;99.90
23869;DHT22;12115;47.128;15.422;2023-07-13T13:47:51;24.80;99.90
23869;DHT22;12115;47.128;15.422;2023-07-13T13:50:20;24.70;99.90
23869;DHT22;12115;47.128;15.422;2023-07-13T13:52:51;24.70;99.90
23869;DHT22;12115;47.128;15.422;2023-07-13T13:55:19;24.60;99.90
23869;DHT22;12115;47.128;15.422;2023-07-13T13:57:53;24.30;99.90
23869;DHT22;12115;47.128;15.422;2023-07-13T14:00:20;24.10;99.90
23869;DHT22;12115;47.128;15.422;2023-07-13T14:02:47;24.00;99.90
23869;DHT22;12115;47.128;15.422;2023-07-13T14:05:18;23.70;99.90
23869;DHT22;12115;47.128;15.422;2023-07-13T14:07:47;23.70;99.90
23869;DHT22;12115;47.128;15.422;2023-07-13T14:10:15;23.70;99.90
23869;DHT22;12115;47.128;15.422;2023-07-13T14:12:42;23.50;99.90
23869;DHT22;12115;47.128;15.422;2023-07-13T14:15:20;23.50;99.90
23869;DHT22;12115;47.128;15.422;2023-07-13T14:17:47;23.40;99.90
23869;DHT22;12115;47.128;15.422;2023-07-13T14:20:17;23.40;99.90
23869;DHT22;12115;47.128;15.422;2023-07-13T14:22:45;23.40;99.90
23869;DHT22;12115;47.128;15.422;2023-07-13T14:25:13;23.40;99.90
23869;DHT22;12115;47.128;15.422;2023-07-13T14:27:40;23.50;99.90
23869;DHT22;12115;47.128;15.422;2023-07-13T14:30:14;23.50;99.90
23869;DHT22;12115;47.128;15.422;2023-07-13T14:32:41;23.30;99.90
23869;DHT22;12115;47.128;15.422;2023-07-13T14:35:11;23.20;99.90
23869;DHT22;12115;47.128;15.422;2023-07-13T14:37:39;23.10;99.90
23869;DHT22;12115;47.128;15.422;2023-07-13T14:42:41;22.60;99.90
23869;DHT22;12115;47.128;15.422;2023-07-13T14:45:12;22.40;99.90
23869;DHT22;12115;47.128;15.422;2023-07-13T14:47:40;22.20;99.90
23869;DHT22;12115;47.128;15.422;2023-07-13T14:52:40;22.20;99.90
23869;DHT22;12115;47.128;15.422;2023-07-13T14:55:11;22.20;99.90
23869;DHT22;12115;47.128;15.422;2023-07-13T14:57:38;22.10;99.90
23869;DHT22;12115;47.128;15.422;2023-07-13T15:00:12;22.10;99.90
23869;DHT22;12115;47.128;15.422;2023-07-13T15:02:43;22.20;99.90
23869;DHT22;12115;47.128;15.422;2023-07-13T15:05:17;22.20;99.90
23869;DHT22;12115;47.128;15.422;2023-07-13T15:07:45;22.30;99.90
23869;DHT22;12115;47.128;15.422;2023-07-13T15:10:24;22.20;99.90
23869;DHT22;12115;47.128;15.422;2023-07-13T15:12:53;22.30;99.90
23869;DHT22;12115;47.128;15.422;2023-07-13T15:15:21;22.30;99.90
23869;DHT22;12115;47.128;15.422;2023-07-13T15:17:50;22.30;99.90
23869;DHT22;12115;47.128;15.422;2023-07-13T15:20:25;22.30;99.90
23869;DHT22;12115;47.128;15.422;2023-07-13T15:22:55;22.30;99.90
23869;DHT22;12115;47.128;15.422;2023-07-13T15:25:25;22.30;99.90
23869;DHT22;12115;47.128;15.422;2023-07-13T15:27:54;22.20;99.90
23869;DHT22;12115;47.128;15.422;2023-07-13T15:30:22;22.00;99.90
23869;DHT22;12115;47.128;15.422;2023-07-13T15:32:49;21.90;99.90
23869;DHT22;12115;47.128;15.422;2023-07-13T15:35:17;21.90;99.90
23869;DHT22;12115;47.128;15.422;2023-07-13T15:37:44;21.90;99.90
23869;DHT22;12115;47.128;15.422;2023-07-13T15:40:12;21.80;99.90
23869;DHT22;12115;47.128;15.422;2023-07-13T15:42:43;21.80;99.90
23869;DHT22;12115;47.128;15.422;2023-07-13T15:45:14;21.70;99.90
23869;DHT22;12115;47.128;15.422;2023-07-13T15:47:42;21.60;99.90
23869;DHT22;12115;47.128;15.422;2023-07-13T15:50:13;21.40;99.90
23869;DHT22;12115;47.128;15.422;2023-07-13T15:52:41;21.30;99.90
23869;DHT22;12115;47.128;15.422;2023-07-13T15:55:12;21.20;99.90
23869;DHT22;12115;47.128;15.422;2023-07-13T15:57:40;21.10;99.90
23869;DHT22;12115;47.128;15.422;2023-07-13T16:00:16;21.10;99.90
23869;DHT22;12115;47.128;15.422;2023-07-13T16:02:47;21.20;99.90
23869;DHT22;12115;47.128;15.422;2023-07-13T16:05:17;21.30;99.90
23869;DHT22;12115;47.128;15.422;2023-07-13T16:07:46;21.10;99.90
23869;DHT22;12115;47.128;15.422;2023-07-13T16:10:16;20.90;99.90
23869;DHT22;12115;47.128;15.422;2023-07-13T16:12:43;20.80;99.90
23869;DHT22;12115;47.128;15.422;2023-07-13T16:15:17;20.80;99.90
23869;DHT22;12115;47.128;15.422;2023-07-13T16:17:46;20.90;99.90
23869;DHT22;12115;47.128;15.422;2023-07-13T16:20:13;21.10;99.90
23869;DHT22;12115;47.128;15.422;2023-07-13T16:22:45;21.10;99.90
23869;DHT22;12115;47.128;15.422;2023-07-13T16:25:16;21.10;99.90
23869;DHT22;12115;47.128;15.422;2023-07-13T16:27:45;21.00;99.90
23869;DHT22;12115;47.128;15.422;2023-07-13T16:30:14;20.90;99.90
23869;DHT22;12115;47.128;15.422;2023-07-13T16:32:41;20.90;99.90
23869;DHT22;12115;47.128;15.422;2023-07-13T16:35:09;20.80;99.90
23869;DHT22;12115;47.128;15.422;2023-07-13T16:37:36;20.90;99.90
23869;DHT22;12115;47.128;15.422;2023-07-13T16:40:25;20.90;99.90
23869;DHT22;12115;47.128;15.422;2023-07-13T16:42:54;21.00;99.90
23869;DHT22;12115;47.128;15.422;2023-07-13T16:45:23;20.90;99.90
23869;DHT22;12115;47.128;15.422;2023-07-13T16:47:52;20.90;99.90
23869;DHT22;12115;47.128;15.422;2023-07-13T16:50:25;21.00;99.90